Time;durP1;ratioP1;P1;durP2;ratioP2;P2;SDS_P1;SDS_P2;PMS_P1;PMS_P2;Temp;Humidity;BMP_temperature;BMP_pressure;BME280_temperature;BME280_humidity;BME280_pressure;Samples;Min_cycle;Max_cycle;Signal;HPM_P1;HPM_P2
2023/08/13 00:02:00;;;;;;;10.70;3.47;;;;;;;;;;5047441;28;20748;-59
2023/08/13 00:04:26;;;;;;;11.80;3.53;;;;;;;;;;5049915;28;20257;-59
2023/08/13 00:06:51;;;;;;;9.70;3.15;;;;;;;;;;5050589;28;20219;-59
2023/08/13 00:09:16;;;;;;;10.10;3.08;;;;;;;;;;5047528;28;20218;-59
2023/08/13 00:11:42;;;;;;;11.43;3.33;;;;;;;;;;5050023;28;20219;-59
2023/08/13 00:14:07;;;;;;;8.57;2.70;;;;;;;;;;5049982;28;20211;-59
2023/08/13 00:16:32;;;;;;;8.80;2.75;;;;;;;;;;5048689;28;20607;-59
2023/08/13 00:18:57;;;;;;;10.15;2.80;;;;;;;;;;5048524;28;20215;-59
2023/08/13 00:21:23;;;;;;;11.82;3.20;;;;;;;;;;5049611;28;20266;-59
2023/08/13 00:23:48;;;;;;;12.40;2.78;;;;;;;;;;5049687;28;20306;-59
2023/08/13 00:26:14;;;;;;;12.90;2.67;;;;;;;;;;5047257;28;20207;-59
2023/08/13 00:28:39;;;;;;;7.82;2.45;;;;;;;;;;5049670;28;20207;-59
2023/08/13 00:31:05;;;;;;;11.18;2.72;;;;;;;;;;5049430;28;20662;-60
2023/08/13 00:33:30;;;;;;;8.48;2.30;;;;;;;;;;5048273;28;20211;-59
2023/08/13 00:35:55;;;;;;;12.45;2.63;;;;;;;;;;5048242;28;20712;-59
2023/08/13 00:38:20;;;;;;;12.23;3.08;;;;;;;;;;5049927;28;20237;-59
2023/08/13 00:40:46;;;;;;;11.52;2.38;;;;;;;;;;5049067;28;20215;-59
2023/08/13 00:43:11;;;;;;;13.68;2.80;;;;;;;;;;5047088;28;20219;-59
2023/08/13 00:45:36;;;;;;;11.20;2.90;;;;;;;;;;5049814;28;20249;-59
2023/08/13 00:48:02;;;;;;;6.72;2.20;;;;;;;;;;5049435;28;20234;-59
2023/08/13 00:50:27;;;;;;;9.43;2.35;;;;;;;;;;5046382;28;20215;-59
2023/08/13 00:52:53;;;;;;;13.43;2.97;;;;;;;;;;5049841;28;20752;-59
2023/08/13 00:55:18;;;;;;;8.95;2.45;;;;;;;;;;5049199;28;20230;-59
2023/08/13 00:57:43;;;;;;;11.23;2.67;;;;;;;;;;5029579;28;20238;-59
2023/08/13 01:00:10;;;;;;;12.43;2.65;;;;;;;;;;5048029;28;20640;-59
2023/08/13 01:02:36;;;;;;;11.57;2.60;;;;;;;;;;5049292;28;20234;-59
2023/08/13 01:05:03;;;;;;;7.15;2.35;;;;;;;;;;5047810;28;20253;-59
2023/08/13 01:07:30;;;;;;;9.48;2.70;;;;;;;;;;5047277;28;20311;-59
2023/08/13 01:10:17;;;;;;;10.85;3.08;;;;;;;;;;5031860;28;20199;-59
2023/08/13 01:12:54;;;;;;;10.07;2.58;;;;;;;;;;5030331;28;20211;-59
2023/08/13 01:15:22;;;;;;;9.93;2.58;;;;;;;;;;5047425;28;20310;-59
2023/08/13 01:17:48;;;;;;;11.93;3.20;;;;;;;;;;5028216;28;20226;-59
2023/08/13 01:20:14;;;;;;;10.02;2.47;;;;;;;;;;5048421;28;20264;-59
2023/08/13 01:22:45;;;;;;;11.77;2.70;;;;;;;;;;5049088;28;20660;-59
2023/08/13 01:25:11;;;;;;;12.23;2.45;;;;;;;;;;5046081;28;20219;-59
2023/08/13 01:27:39;;;;;;;10.77;2.88;;;;;;;;;;5048286;28;20223;-59
2023/08/13 01:30:06;;;;;;;11.82;2.55;;;;;;;;;;5030716;28;20262;-59
2023/08/13 01:32:45;;;;;;;13.40;2.70;;;;;;;;;;5047781;28;20304;-59
2023/08/13 01:35:10;;;;;;;10.07;2.45;;;;;;;;;;5028299;28;20211;-59
2023/08/13 01:37:36;;;;;;;9.82;3.08;;;;;;;;;;5027283;28;20594;-59
2023/08/13 01:40:01;;;;;;;9.55;2.20;;;;;;;;;;5028060;28;20260;-59
2023/08/13 01:42:27;;;;;;;10.30;2.53;;;;;;;;;;5025937;28;20240;-59
2023/08/13 01:44:52;;;;;;;11.50;2.47;;;;;;;;;;5028321;28;20219;-59
2023/08/13 01:47:17;;;;;;;12.02;2.70;;;;;;;;;;5027232;28;20624;-59
2023/08/13 01:49:42;;;;;;;9.98;2.90;;;;;;;;;;5028082;28;20733;-59
2023/08/13 01:52:08;;;;;;;10.50;2.80;;;;;;;;;;5026399;28;20222;-59
2023/08/13 01:54:33;;;;;;;10.63;2.80;;;;;;;;;;5027933;28;20220;-59
2023/08/13 01:56:58;;;;;;;10.40;2.67;;;;;;;;;;5028768;28;20230;-59
2023/08/13 01:59:24;;;;;;;10.88;2.67;;;;;;;;;;5025831;28;20211;-59
2023/08/13 02:01:49;;;;;;;9.80;2.58;;;;;;;;;;5027876;28;20231;-59
2023/08/13 02:04:14;;;;;;;12.07;2.85;;;;;;;;;;5027883;28;20220;-59
2023/08/13 02:06:40;;;;;;;10.32;2.67;;;;;;;;;;5027093;28;20207;-59
2023/08/13 02:09:05;;;;;;;10.05;2.55;;;;;;;;;;5026474;28;20259;-59
2023/08/13 02:11:30;;;;;;;12.38;2.85;;;;;;;;;;5028459;28;20204;-59
2023/08/13 02:13:56;;;;;;;9.25;2.75;;;;;;;;;;5027776;28;20212;-59
2023/08/13 02:16:21;;;;;;;7.32;2.60;;;;;;;;;;5025442;28;20856;-59
2023/08/13 02:18:46;;;;;;;10.02;2.55;;;;;;;;;;5028243;28;20671;-59
2023/08/13 02:21:11;;;;;;;11.38;2.80;;;;;;;;;;5027402;28;20259;-59
2023/08/13 02:23:37;;;;;;;13.48;2.88;;;;;;;;;;5026049;28;20250;-59
2023/08/13 02:26:02;;;;;;;8.20;2.35;;;;;;;;;;5027853;28;20269;-59
2023/08/13 02:28:27;;;;;;;9.25;2.60;;;;;;;;;;5027714;28;20219;-59
2023/08/13 02:30:53;;;;;;;12.98;2.85;;;;;;;;;;5027061;28;20218;-59
2023/08/13 02:33:18;;;;;;;12.68;2.92;;;;;;;;;;5030604;28;20750;-59
2023/08/13 02:35:43;;;;;;;11.23;2.60;;;;;;;;;;5031610;28;20682;-59
2023/08/13 02:38:09;;;;;;;12.27;2.60;;;;;;;;;;5049831;28;20321;-59
2023/08/13 02:40:35;;;;;;;11.13;2.70;;;;;;;;;;5051035;28;20302;-59
2023/08/13 02:43:00;;;;;;;12.57;3.15;;;;;;;;;;5050141;28;20561;-59
2023/08/13 02:45:25;;;;;;;11.20;2.65;;;;;;;;;;5045747;28;20203;-59
2023/08/13 02:47:51;;;;;;;10.95;2.60;;;;;;;;;;5048458;28;20215;-59
2023/08/13 02:50:16;;;;;;;10.25;2.92;;;;;;;;;;5046325;28;20585;-59
2023/08/13 02:52:41;;;;;;;11.32;2.80;;;;;;;;;;5045559;28;20210;-59
2023/08/13 02:55:07;;;;;;;10.10;2.55;;;;;;;;;;5047412;28;20207;-60
2023/08/13 02:57:32;;;;;;;11.27;2.83;;;;;;;;;;5047275;28;20670;-59
2023/08/13 02:59:57;;;;;;;11.13;2.70;;;;;;;;;;5045925;28;20276;-59
2023/08/13 03:02:23;;;;;;;10.77;2.63;;;;;;;;;;5046950;28;20325;-59
2023/08/13 03:04:48;;;;;;;11.48;2.58;;;;;;;;;;5046896;28;20218;-59
2023/08/13 03:07:13;;;;;;;12.43;2.95;;;;;;;;;;5046132;28;20643;-59
2023/08/13 03:09:39;;;;;;;8.15;2.33;;;;;;;;;;5046385;28;20234;-59
2023/08/13 03:12:04;;;;;;;11.65;3.15;;;;;;;;;;5046896;28;20783;-59
2023/08/13 03:14:29;;;;;;;9.35;2.70;;;;;;;;;;5047434;28;20221;-59
2023/08/13 03:16:55;;;;;;;12.07;2.83;;;;;;;;;;5045511;28;20269;-59
2023/08/13 03:19:20;;;;;;;10.32;2.88;;;;;;;;;;5046494;28;20639;-59
2023/08/13 03:21:45;;;;;;;12.13;3.17;;;;;;;;;;5047453;28;20235;-59
2023/08/13 03:24:11;;;;;;;11.38;2.90;;;;;;;;;;5045016;28;20210;-59
2023/08/13 03:26:36;;;;;;;10.73;2.80;;;;;;;;;;5046500;28;20273;-59
2023/08/13 03:29:01;;;;;;;11.85;2.90;;;;;;;;;;5046958;28;20613;-60
2023/08/13 03:31:27;;;;;;;12.32;3.10;;;;;;;;;;5046127;28;20220;-59
2023/08/13 03:33:52;;;;;;;10.73;3.03;;;;;;;;;;5045995;28;20699;-59
2023/08/13 03:36:17;;;;;;;11.68;2.90;;;;;;;;;;5046454;28;20765;-59
2023/08/13 03:38:43;;;;;;;11.68;2.95;;;;;;;;;;5048334;28;20261;-59
2023/08/13 03:41:09;;;;;;;12.05;2.90;;;;;;;;;;5047971;28;20233;-59
2023/08/13 03:43:34;;;;;;;10.63;2.83;;;;;;;;;;5051194;28;20286;-59
2023/08/13 03:46:01;;;;;;;10.23;2.85;;;;;;;;;;5050314;28;20357;-59
2023/08/13 03:48:26;;;;;;;10.25;3.05;;;;;;;;;;5049046;28;20218;-59
2023/08/13 03:50:51;;;;;;;12.70;2.88;;;;;;;;;;5049830;28;20215;-59
2023/08/13 03:53:22;;;;;;;10.27;2.58;;;;;;;;;;5049690;28;20219;-59
2023/08/13 03:55:47;;;;;;;8.93;2.60;;;;;;;;;;5050106;28;20226;-59
2023/08/13 03:58:12;;;;;;;10.25;2.60;;;;;;;;;;5048317;28;20207;-59
2023/08/13 04:00:38;;;;;;;10.55;2.55;;;;;;;;;;5049939;28;20230;-59
2023/08/13 04:03:03;;;;;;;12.30;3.15;;;;;;;;;;5050594;28;20227;-59
2023/08/13 04:05:28;;;;;;;13.05;2.47;;;;;;;;;;5048311;28;20289;-59
2023/08/13 04:07:54;;;;;;;13.60;2.95;;;;;;;;;;5049531;28;20227;-59
2023/08/13 04:10:19;;;;;;;11.70;2.55;;;;;;;;;;5049805;28;20217;-59
2023/08/13 04:12:44;;;;;;;10.50;2.83;;;;;;;;;;5049585;28;20215;-59
2023/08/13 04:15:10;;;;;;;10.73;2.90;;;;;;;;;;5047938;28;20651;-59
2023/08/13 04:17:35;;;;;;;15.50;3.25;;;;;;;;;;5050433;28;20207;-59
2023/08/13 04:20:00;;;;;;;10.77;2.95;;;;;;;;;;5049612;28;20230;-60
2023/08/13 04:22:26;;;;;;;13.40;2.88;;;;;;;;;;5047115;28;20697;-59
2023/08/13 04:24:51;;;;;;;10.48;2.53;;;;;;;;;;5050217;28;20207;-59
2023/08/13 04:27:17;;;;;;;12.68;2.63;;;;;;;;;;5049267;28;20215;-59
2023/08/13 04:29:43;;;;;;;10.63;2.45;;;;;;;;;;5047697;28;20269;-60
2023/08/13 04:32:08;;;;;;;11.20;3.03;;;;;;;;;;5049006;28;20253;-60
2023/08/13 04:34:33;;;;;;;10.40;2.47;;;;;;;;;;5050354;28;20238;-60
2023/08/13 04:36:59;;;;;;;10.60;2.58;;;;;;;;;;5047917;28;20318;-59
2023/08/13 04:39:24;;;;;;;11.38;2.67;;;;;;;;;;5048231;28;20219;-59
2023/08/13 04:41:50;;;;;;;12.85;2.70;;;;;;;;;;5048966;28;20226;-60
2023/08/13 04:44:15;;;;;;;9.48;2.55;;;;;;;;;;5049301;28;20603;-59
2023/08/13 04:46:40;;;;;;;10.75;2.45;;;;;;;;;;5047446;28;20288;-59
2023/08/13 04:49:05;;;;;;;11.60;3.00;;;;;;;;;;5048024;28;20379;-60
2023/08/13 04:51:31;;;;;;;9.20;2.38;;;;;;;;;;5049216;28;20360;-60
2023/08/13 04:53:56;;;;;;;10.27;2.92;;;;;;;;;;5048004;28;20603;-59
2023/08/13 04:56:21;;;;;;;12.52;2.50;;;;;;;;;;5047479;28;20572;-60
2023/08/13 04:58:47;;;;;;;13.13;2.50;;;;;;;;;;5049833;28;20238;-59
2023/08/13 05:01:12;;;;;;;10.82;2.53;;;;;;;;;;5048254;28;20223;-60
2023/08/13 05:03:37;;;;;;;12.00;2.78;;;;;;;;;;5047167;28;20215;-60
2023/08/13 05:06:03;;;;;;;13.85;2.40;;;;;;;;;;5048826;28;20230;-59
2023/08/13 05:08:28;;;;;;;11.35;2.70;;;;;;;;;;5049561;28;20215;-60
2023/08/13 05:10:53;;;;;;;8.73;2.30;;;;;;;;;;5045869;28;20222;-60
2023/08/13 05:13:19;;;;;;;10.25;2.40;;;;;;;;;;5048790;28;20211;-60
2023/08/13 05:15:44;;;;;;;12.20;2.67;;;;;;;;;;5049358;28;20222;-60
2023/08/13 05:18:10;;;;;;;9.65;2.30;;;;;;;;;;5046391;28;20223;-59
2023/08/13 05:20:35;;;;;;;10.65;2.47;;;;;;;;;;5048327;28;21148;-59
2023/08/13 05:23:00;;;;;;;10.75;2.55;;;;;;;;;;5048538;28;20288;-60
2023/08/13 05:25:26;;;;;;;10.88;2.33;;;;;;;;;;5047726;28;20226;-59
2023/08/13 05:27:51;;;;;;;9.98;2.63;;;;;;;;;;5047244;28;20221;-59
2023/08/13 05:30:16;;;;;;;11.48;2.90;;;;;;;;;;5048516;28;20207;-59
2023/08/13 05:32:42;;;;;;;11.30;2.60;;;;;;;;;;5048262;28;20273;-59
2023/08/13 05:35:07;;;;;;;8.70;2.70;;;;;;;;;;5045797;28;20243;-59
2023/08/13 05:37:33;;;;;;;12.10;2.80;;;;;;;;;;5048580;28;20309;-59
2023/08/13 05:39:58;;;;;;;11.80;2.70;;;;;;;;;;5048124;28;20293;-59
2023/08/13 05:42:23;;;;;;;14.43;2.95;;;;;;;;;;5046783;28;20550;-59
2023/08/13 05:44:49;;;;;;;11.68;2.63;;;;;;;;;;5047652;28;20682;-59
2023/08/13 05:47:14;;;;;;;10.25;2.70;;;;;;;;;;5046669;28;20580;-59
2023/08/13 05:49:39;;;;;;;10.75;2.50;;;;;;;;;;5048326;28;20285;-60
2023/08/13 05:52:05;;;;;;;7.25;2.17;;;;;;;;;;5045313;28;20210;-60
2023/08/13 05:54:30;;;;;;;12.48;2.80;;;;;;;;;;5048694;28;20221;-59
2023/08/13 05:56:55;;;;;;;13.93;2.78;;;;;;;;;;5048447;28;20234;-59
2023/08/13 05:59:21;;;;;;;10.10;2.85;;;;;;;;;;5045374;28;20246;-59
2023/08/13 06:01:46;;;;;;;14.07;2.90;;;;;;;;;;5048179;28;20579;-59
2023/08/13 06:04:11;;;;;;;11.50;2.40;;;;;;;;;;5047841;28;20272;-60
2023/08/13 06:06:37;;;;;;;9.50;2.80;;;;;;;;;;5046643;28;20223;-59
2023/08/13 06:09:02;;;;;;;11.35;2.63;;;;;;;;;;5046251;28;20353;-60
2023/08/13 06:11:27;;;;;;;12.77;3.20;;;;;;;;;;5048407;28;20276;-60
2023/08/13 06:13:53;;;;;;;11.02;2.80;;;;;;;;;;5047264;28;20218;-60
2023/08/13 06:16:18;;;;;;;11.10;3.00;;;;;;;;;;5025601;28;20211;-59
2023/08/13 06:18:43;;;;;;;10.18;2.80;;;;;;;;;;5048255;28;20222;-60
2023/08/13 06:21:09;;;;;;;12.32;3.10;;;;;;;;;;5046929;28;20235;-60
2023/08/13 06:23:34;;;;;;;12.60;3.13;;;;;;;;;;5046232;28;20215;-59
2023/08/13 06:25:59;;;;;;;8.88;2.70;;;;;;;;;;5047718;28;20666;-59
2023/08/13 06:28:25;;;;;;;11.35;2.90;;;;;;;;;;5046799;28;20678;-60
2023/08/13 06:30:50;;;;;;;12.15;3.17;;;;;;;;;;5047207;28;20203;-59
2023/08/13 06:33:15;;;;;;;9.52;2.50;;;;;;;;;;5046160;28;20234;-60
2023/08/13 06:35:45;;;;;;;9.07;2.75;;;;;;;;;;5047372;28;20215;-59
2023/08/13 06:38:10;;;;;;;8.98;2.88;;;;;;;;;;5047485;28;20724;-60
2023/08/13 06:40:35;;;;;;;10.73;2.55;;;;;;;;;;5045386;28;20215;-60
2023/08/13 06:43:01;;;;;;;9.75;2.60;;;;;;;;;;5046785;28;20864;-61
2023/08/13 06:45:27;;;;;;;12.18;3.35;;;;;;;;;;5048209;28;20641;-60
2023/08/13 06:47:53;;;;;;;11.55;2.70;;;;;;;;;;5046448;28;20211;-60
2023/08/13 06:50:18;;;;;;;9.02;2.75;;;;;;;;;;5045688;28;20751;-60
2023/08/13 06:52:43;;;;;;;8.80;2.75;;;;;;;;;;5048045;28;20218;-60
2023/08/13 06:55:09;;;;;;;9.55;2.65;;;;;;;;;;5046634;28;20215;-60
2023/08/13 06:57:34;;;;;;;10.10;2.85;;;;;;;;;;5044625;28;20218;-60
2023/08/13 06:59:59;;;;;;;10.02;2.70;;;;;;;;;;5047689;28;20229;-60
2023/08/13 07:02:25;;;;;;;10.45;2.90;;;;;;;;;;5046768;28;20644;-59
2023/08/13 07:04:50;;;;;;;9.98;2.80;;;;;;;;;;5045578;28;20215;-60
2023/08/13 07:07:15;;;;;;;11.45;2.90;;;;;;;;;;5047174;28;20389;-60
2023/08/13 07:09:41;;;;;;;9.48;2.70;;;;;;;;;;5047108;28;21194;-60
2023/08/13 07:12:06;;;;;;;11.00;2.85;;;;;;;;;;5045746;28;20223;-60
2023/08/13 07:14:31;;;;;;;12.75;2.83;;;;;;;;;;5049484;28;20238;-60
2023/08/13 07:16:57;;;;;;;12.70;2.75;;;;;;;;;;5051060;28;20311;-59
2023/08/13 07:19:22;;;;;;;11.77;2.80;;;;;;;;;;5050583;28;20218;-60
2023/08/13 07:21:47;;;;;;;11.10;2.75;;;;;;;;;;5049163;28;20227;-60
2023/08/13 07:24:13;;;;;;;11.43;3.33;;;;;;;;;;5050313;28;20211;-60
2023/08/13 07:26:38;;;;;;;9.88;2.55;;;;;;;;;;5051348;28;20206;-60
2023/08/13 07:29:06;;;;;;;8.35;2.38;;;;;;;;;;5048680;28;20215;-60
2023/08/13 07:31:32;;;;;;;8.35;2.42;;;;;;;;;;5050116;28;20243;-60
2023/08/13 07:33:57;;;;;;;10.80;2.55;;;;;;;;;;5051439;28;20288;-60
2023/08/13 07:36:22;;;;;;;8.93;2.15;;;;;;;;;;5049701;28;20211;-59
2023/08/13 07:38:48;;;;;;;6.70;2.13;;;;;;;;;;5048968;28;20215;-59
2023/08/13 07:41:13;;;;;;;8.48;2.63;;;;;;;;;;5050381;28;20227;-60
2023/08/13 07:43:39;;;;;;;9.20;2.25;;;;;;;;;;5050909;28;20207;-60
2023/08/13 07:46:04;;;;;;;9.00;2.50;;;;;;;;;;5047374;28;20222;-60
2023/08/13 07:48:29;;;;;;;10.25;2.22;;;;;;;;;;5050609;28;20241;-60
2023/08/13 07:50:55;;;;;;;10.80;2.63;;;;;;;;;;5050826;28;20277;-60
2023/08/13 07:53:20;;;;;;;8.80;2.20;;;;;;;;;;5047919;28;20299;-60
2023/08/13 07:55:46;;;;;;;11.95;2.70;;;;;;;;;;5050223;28;20239;-60
2023/08/13 07:58:14;;;;;;;11.18;2.80;;;;;;;;;;5049734;28;20207;-60
2023/08/13 08:00:39;;;;;;;7.28;2.40;;;;;;;;;;5049201;28;20263;-59
2023/08/13 08:03:05;;;;;;;7.50;2.08;;;;;;;;;;5048370;28;21352;-60
2023/08/13 08:05:30;;;;;;;10.80;2.40;;;;;;;;;;5050715;28;20233;-60
2023/08/13 08:07:55;;;;;;;9.50;2.50;;;;;;;;;;5050000;28;20219;-59
2023/08/13 08:10:21;;;;;;;9.98;2.30;;;;;;;;;;5047715;28;20716;-59
2023/08/13 08:12:46;;;;;;;8.57;2.05;;;;;;;;;;5049498;28;20211;-59
2023/08/13 08:15:11;;;;;;;9.38;2.33;;;;;;;;;;5032196;28;20203;-60
2023/08/13 08:17:37;;;;;;;8.15;2.30;;;;;;;;;;5028511;28;20225;-60
2023/08/13 08:20:03;;;;;;;10.27;2.10;;;;;;;;;;5048077;28;20749;-59
2023/08/13 08:22:29;;;;;;;9.68;2.47;;;;;;;;;;5049883;28;20223;-59
2023/08/13 08:24:54;;;;;;;8.55;2.20;;;;;;;;;;5049764;28;20226;-60
2023/08/13 08:27:19;;;;;;;10.10;2.10;;;;;;;;;;5046770;28;20219;-60
2023/08/13 08:29:44;;;;;;;9.38;2.20;;;;;;;;;;5052672;28;20226;-59
2023/08/13 08:32:10;;;;;;;9.38;2.17;;;;;;;;;;5050750;28;20351;-59
2023/08/13 08:34:35;;;;;;;8.80;2.10;;;;;;;;;;5049203;28;20623;-59
2023/08/13 08:37:00;;;;;;;8.40;2.28;;;;;;;;;;5047760;28;20642;-60
2023/08/13 08:39:26;;;;;;;9.93;1.98;;;;;;;;;;5050331;28;20241;-59
2023/08/13 08:41:51;;;;;;;7.85;2.00;;;;;;;;;;5049282;28;20242;-59
2023/08/13 08:44:20;;;;;;;9.43;2.13;;;;;;;;;;5028753;28;20215;-60
2023/08/13 08:46:47;;;;;;;8.80;2.10;;;;;;;;;;5049468;28;20764;-60
2023/08/13 08:49:13;;;;;;;9.23;2.22;;;;;;;;;;5030748;28;20581;-59
2023/08/13 08:51:38;;;;;;;7.65;2.30;;;;;;;;;;5030501;28;20218;-59
2023/08/13 08:54:03;;;;;;;8.32;2.33;;;;;;;;;;5048200;28;20217;-60
2023/08/13 08:56:29;;;;;;;8.95;2.10;;;;;;;;;;5048966;28;20286;-60
2023/08/13 08:58:54;;;;;;;8.80;1.92;;;;;;;;;;5031281;28;20239;-59
2023/08/13 09:01:19;;;;;;;9.57;2.30;;;;;;;;;;5046963;28;20322;-59
2023/08/13 09:03:45;;;;;;;10.98;2.55;;;;;;;;;;5048843;28;20349;-59
2023/08/13 09:06:10;;;;;;;9.93;2.30;;;;;;;;;;5049006;28;20732;-60
2023/08/13 09:08:36;;;;;;;10.05;2.38;;;;;;;;;;5047400;28;20219;-59
2023/08/13 09:11:02;;;;;;;7.82;2.10;;;;;;;;;;5048076;28;20234;-60
2023/08/13 09:13:27;;;;;;;11.63;2.55;;;;;;;;;;5049112;28;20231;-59
2023/08/13 09:15:53;;;;;;;12.60;2.97;;;;;;;;;;5048075;28;20688;-59
2023/08/13 09:18:18;;;;;;;10.70;2.58;;;;;;;;;;5028721;28;20276;-60
2023/08/13 09:20:44;;;;;;;9.77;2.28;;;;;;;;;;5049418;28;20222;-59
2023/08/13 09:23:09;;;;;;;8.68;2.15;;;;;;;;;;5047925;28;20215;-60
2023/08/13 09:25:35;;;;;;;13.90;2.80;;;;;;;;;;5047001;28;20248;-59
2023/08/13 09:28:01;;;;;;;9.93;2.38;;;;;;;;;;5048704;28;20215;-60
2023/08/13 09:30:28;;;;;;;10.48;2.30;;;;;;;;;;5030218;28;20598;-59
2023/08/13 09:32:55;;;;;;;10.98;2.58;;;;;;;;;;5019837;28;20350;-59
2023/08/13 09:35:20;;;;;;;7.35;1.67;;;;;;;;;;5026813;28;20233;-59
2023/08/13 09:37:46;;;;;;;9.05;2.17;;;;;;;;;;5024771;28;20633;-59
2023/08/13 09:40:11;;;;;;;10.38;2.35;;;;;;;;;;5029984;28;20242;-60
2023/08/13 09:42:36;;;;;;;7.00;1.95;;;;;;;;;;5033713;28;20230;-59
2023/08/13 09:45:02;;;;;;;10.23;2.33;;;;;;;;;;5022744;28;20250;-60
2023/08/13 09:47:28;;;;;;;7.50;2.20;;;;;;;;;;5030832;28;20207;-59
2023/08/13 09:49:54;;;;;;;13.23;2.30;;;;;;;;;;5033772;28;20970;-59
2023/08/13 09:52:20;;;;;;;8.70;2.22;;;;;;;;;;5036707;28;20570;-59
2023/08/13 09:54:52;;;;;;;11.15;1.98;;;;;;;;;;5029431;28;20219;-59
2023/08/13 09:57:18;;;;;;;8.90;2.05;;;;;;;;;;5004363;28;20574;-59
2023/08/13 09:59:44;;;;;;;7.20;1.65;;;;;;;;;;5026297;28;20901;-59
2023/08/13 10:02:11;;;;;;;10.32;2.35;;;;;;;;;;5023617;28;20260;-59
2023/08/13 10:04:38;;;;;;;8.45;1.80;;;;;;;;;;5030137;28;20257;-59
2023/08/13 10:07:04;;;;;;;8.45;2.25;;;;;;;;;;5030573;28;20214;-60
2023/08/13 10:09:29;;;;;;;9.07;1.88;;;;;;;;;;5030392;28;20219;-60
2023/08/13 10:11:54;;;;;;;9.05;1.92;;;;;;;;;;5030160;28;20302;-59
2023/08/13 10:14:19;;;;;;;6.75;1.92;;;;;;;;;;5031676;28;20852;-59
2023/08/13 10:16:45;;;;;;;7.65;1.90;;;;;;;;;;5028856;28;20225;-59
2023/08/13 10:19:10;;;;;;;10.38;2.22;;;;;;;;;;5017227;28;20211;-60
2023/08/13 10:21:36;;;;;;;9.05;1.92;;;;;;;;;;5011939;28;20235;-59
2023/08/13 10:24:03;;;;;;;8.50;2.47;;;;;;;;;;5023523;28;20274;-60
2023/08/13 10:26:28;;;;;;;9.32;1.95;;;;;;;;;;5018967;28;20215;-59
2023/08/13 10:28:54;;;;;;;9.80;2.33;;;;;;;;;;5029885;28;20423;-59
2023/08/13 10:31:27;;;;;;;11.48;2.38;;;;;;;;;;5033755;28;20273;-59
2023/08/13 10:34:01;;;;;;;9.05;2.13;;;;;;;;;;5046238;28;20638;-59
2023/08/13 10:36:41;;;;;;;9.23;1.92;;;;;;;;;;5047619;28;21923;-59
2023/08/13 10:39:24;;;;;;;10.68;2.53;;;;;;;;;;5047445;28;20211;-60
2023/08/13 10:41:50;;;;;;;8.90;2.17;;;;;;;;;;5044521;28;20226;-59
2023/08/13 10:44:28;;;;;;;8.55;2.30;;;;;;;;;;5046832;28;20237;-59
2023/08/13 10:46:54;;;;;;;8.50;2.00;;;;;;;;;;5047455;28;20210;-59
2023/08/13 10:49:19;;;;;;;8.02;1.73;;;;;;;;;;5049348;28;20690;-59
2023/08/13 10:51:47;;;;;;;6.57;1.98;;;;;;;;;;5050069;28;20685;-59
2023/08/13 10:54:13;;;;;;;8.65;2.00;;;;;;;;;;5051353;28;20215;-59
2023/08/13 10:56:42;;;;;;;9.32;2.28;;;;;;;;;;5051458;28;20214;-59
2023/08/13 10:59:07;;;;;;;9.25;2.00;;;;;;;;;;5031865;28;20214;-59
2023/08/13 11:01:32;;;;;;;7.40;1.80;;;;;;;;;;5032617;28;20580;-59
2023/08/13 11:03:58;;;;;;;5.47;1.75;;;;;;;;;;5051753;28;20694;-59
2023/08/13 11:06:24;;;;;;;7.47;1.90;;;;;;;;;;5032457;28;20222;-59
2023/08/13 11:08:49;;;;;;;7.63;2.05;;;;;;;;;;5049285;28;20215;-59
2023/08/13 11:11:16;;;;;;;8.77;2.03;;;;;;;;;;5050984;28;20249;-59
2023/08/13 11:13:41;;;;;;;8.05;2.13;;;;;;;;;;5051521;28;20214;-59
2023/08/13 11:16:06;;;;;;;9.57;2.05;;;;;;;;;;5047632;28;20219;-59
2023/08/13 11:18:32;;;;;;;10.63;2.30;;;;;;;;;;5051821;28;20219;-59
2023/08/13 11:20:57;;;;;;;8.02;2.03;;;;;;;;;;5051358;28;20226;-59
2023/08/13 11:23:22;;;;;;;6.25;2.00;;;;;;;;;;5048734;28;20211;-59
2023/08/13 11:25:48;;;;;;;11.88;2.33;;;;;;;;;;5050621;28;20219;-59
2023/08/13 11:28:19;;;;;;;8.35;1.92;;;;;;;;;;5033276;28;20214;-59
2023/08/13 11:30:44;;;;;;;11.05;2.20;;;;;;;;;;5050091;28;20234;-59
2023/08/13 11:33:10;;;;;;;8.55;2.20;;;;;;;;;;5048577;28;20243;-59
2023/08/13 11:35:35;;;;;;;9.65;2.00;;;;;;;;;;5050745;28;20269;-59
2023/08/13 11:38:01;;;;;;;9.57;1.90;;;;;;;;;;5049814;28;20223;-60
2023/08/13 11:40:26;;;;;;;7.45;1.70;;;;;;;;;;5049082;28;20215;-59
2023/08/13 11:42:52;;;;;;;8.20;2.10;;;;;;;;;;5050496;28;20576;-59
2023/08/13 11:45:18;;;;;;;7.18;1.83;;;;;;;;;;5049390;28;20663;-59
2023/08/13 11:47:43;;;;;;;8.68;2.25;;;;;;;;;;5049938;28;20211;-59
2023/08/13 11:50:17;;;;;;;7.15;1.90;;;;;;;;;;5049038;28;20199;-60
2023/08/13 11:52:42;;;;;;;6.60;1.70;;;;;;;;;;5050295;28;20207;-59
2023/08/13 11:55:08;;;;;;;10.88;2.03;;;;;;;;;;5050659;28;20747;-60
2023/08/13 11:57:33;;;;;;;9.70;2.10;;;;;;;;;;5048456;28;20622;-59
2023/08/13 11:59:58;;;;;;;8.15;1.83;;;;;;;;;;5049653;28;20226;-59
2023/08/13 12:02:25;;;;;;;8.32;1.70;;;;;;;;;;5050153;28;20226;-59
2023/08/13 12:04:50;;;;;;;10.15;2.10;;;;;;;;;;5048233;28;20210;-59
2023/08/13 12:07:16;;;;;;;9.32;2.08;;;;;;;;;;5048932;28;20703;-59
2023/08/13 12:09:41;;;;;;;7.65;1.88;;;;;;;;;;5050848;28;20249;-59
2023/08/13 12:12:07;;;;;;;7.80;1.80;;;;;;;;;;5048606;28;20250;-59
2023/08/13 12:14:33;;;;;;;10.02;2.10;;;;;;;;;;5048627;28;20223;-59
2023/08/13 12:16:58;;;;;;;12.00;2.38;;;;;;;;;;5050152;28;20215;-59
2023/08/13 12:19:23;;;;;;;10.82;2.20;;;;;;;;;;5049198;28;20215;-59
2023/08/13 12:21:49;;;;;;;10.43;2.40;;;;;;;;;;5048278;28;20227;-59
2023/08/13 12:24:14;;;;;;;7.00;2.45;;;;;;;;;;5049362;28;20234;-59
2023/08/13 12:26:39;;;;;;;7.53;2.05;;;;;;;;;;5049580;28;20757;-59
2023/08/13 12:29:05;;;;;;;7.60;1.92;;;;;;;;;;5048955;28;20663;-59
2023/08/13 12:31:31;;;;;;;8.48;2.00;;;;;;;;;;5048861;28;20211;-59
2023/08/13 12:33:56;;;;;;;8.60;1.88;;;;;;;;;;5048683;28;20211;-59
2023/08/13 12:36:21;;;;;;;10.35;2.30;;;;;;;;;;5049232;28;20218;-59
2023/08/13 12:38:47;;;;;;;9.15;2.00;;;;;;;;;;5047730;28;20302;-59
2023/08/13 12:41:12;;;;;;;10.48;1.92;;;;;;;;;;5048964;28;20250;-59
2023/08/13 12:43:37;;;;;;;8.75;2.30;;;;;;;;;;5049809;28;20548;-59
2023/08/13 12:46:05;;;;;;;7.53;2.10;;;;;;;;;;5047920;28;20807;-60
2023/08/13 12:48:32;;;;;;;8.32;2.13;;;;;;;;;;5048150;28;20321;-59
2023/08/13 12:50:58;;;;;;;9.85;2.40;;;;;;;;;;5049478;28;20637;-59
2023/08/13 12:53:23;;;;;;;8.82;2.35;;;;;;;;;;5048487;28;20207;-59
2023/08/13 12:55:48;;;;;;;6.22;1.83;;;;;;;;;;5047660;28;20268;-59
2023/08/13 12:58:14;;;;;;;12.20;2.50;;;;;;;;;;5049006;28;20934;-59
2023/08/13 13:00:39;;;;;;;10.23;2.10;;;;;;;;;;5049872;28;20298;-59
2023/08/13 13:03:05;;;;;;;9.27;2.08;;;;;;;;;;5045642;28;20222;-59
2023/08/13 13:05:31;;;;;;;10.77;2.30;;;;;;;;;;5049462;28;20211;-59
2023/08/13 13:07:56;;;;;;;5.60;1.63;;;;;;;;;;5049315;28;20215;-59
2023/08/13 13:10:22;;;;;;;8.13;2.20;;;;;;;;;;5046273;28;20218;-59
2023/08/13 13:12:47;;;;;;;9.32;2.42;;;;;;;;;;5047856;28;20211;-59
2023/08/13 13:15:13;;;;;;;10.25;2.17;;;;;;;;;;5048203;28;20218;-59
2023/08/13 13:17:38;;;;;;;14.80;2.70;;;;;;;;;;5048693;28;20218;-59
2023/08/13 13:20:10;;;;;;;6.20;1.90;;;;;;;;;;5046699;28;20732;-59
2023/08/13 13:22:36;;;;;;;8.98;2.05;;;;;;;;;;5048589;28;20697;-59
2023/08/13 13:25:01;;;;;;;10.05;2.30;;;;;;;;;;5048954;28;20223;-59
2023/08/13 13:27:27;;;;;;;10.38;2.28;;;;;;;;;;5047422;28;20341;-58
2023/08/13 13:29:52;;;;;;;10.32;2.55;;;;;;;;;;5047791;28;20269;-59
2023/08/13 13:32:18;;;;;;;9.20;2.10;;;;;;;;;;5048567;28;20242;-59
2023/08/13 13:34:44;;;;;;;8.73;2.35;;;;;;;;;;5047969;28;20207;-59
2023/08/13 13:37:10;;;;;;;7.90;2.20;;;;;;;;;;5045956;28;20237;-60
2023/08/13 13:39:35;;;;;;;9.18;2.08;;;;;;;;;;5050026;28;20211;-59
2023/08/13 13:42:00;;;;;;;9.23;2.17;;;;;;;;;;5051607;28;20314;-60
2023/08/13 13:44:26;;;;;;;8.55;2.25;;;;;;;;;;5046644;28;20253;-59
2023/08/13 13:46:52;;;;;;;7.25;2.10;;;;;;;;;;5049358;28;20203;-59
2023/08/13 13:49:17;;;;;;;8.38;2.25;;;;;;;;;;5047108;28;20679;-59
2023/08/13 13:51:42;;;;;;;8.43;2.05;;;;;;;;;;5046637;28;20207;-59
2023/08/13 13:54:08;;;;;;;8.90;2.35;;;;;;;;;;5048216;28;20215;-59
2023/08/13 13:56:33;;;;;;;13.23;2.88;;;;;;;;;;5048792;28;20214;-59
2023/08/13 13:58:59;;;;;;;10.68;2.67;;;;;;;;;;5045537;28;20558;-59
2023/08/13 14:01:24;;;;;;;8.43;2.42;;;;;;;;;;5048127;28;20238;-59
2023/08/13 14:03:49;;;;;;;7.20;2.20;;;;;;;;;;5048324;28;20210;-59
2023/08/13 14:06:15;;;;;;;7.65;2.10;;;;;;;;;;5045317;28;20249;-59
2023/08/13 14:08:40;;;;;;;8.77;2.70;;;;;;;;;;5029762;28;20269;-59
2023/08/13 14:11:05;;;;;;;9.43;2.25;;;;;;;;;;5047799;28;20202;-60
2023/08/13 14:13:31;;;;;;;9.68;2.80;;;;;;;;;;5046905;28;20218;-59
2023/08/13 14:15:59;;;;;;;8.20;2.25;;;;;;;;;;5046689;28;20220;-59
2023/08/13 14:18:25;;;;;;;9.75;2.13;;;;;;;;;;5047611;28;20383;-59
2023/08/13 14:20:51;;;;;;;9.55;3.15;;;;;;;;;;5047735;28;20250;-59
2023/08/13 14:23:16;;;;;;;10.50;2.53;;;;;;;;;;5045027;28;20294;-59
2023/08/13 14:25:41;;;;;;;10.85;2.20;;;;;;;;;;5047583;28;20214;-59
2023/08/13 14:28:08;;;;;;;8.60;2.35;;;;;;;;;;5047823;28;20215;-59